Ile Lifou, New Caledonia
Current Conditions -  °F | °C
As of 11:30 PM on Sunday 23 Nov 2014 (Local Time) from NWWW Reporting Station
Clear Clear  
Wind Chill: 70°   Ceiling: Unl
Heat Index: 70°   Visibility: 6mi
Dew Point: 64°   Wind: 9mph
Humidity: 83%   Direction: 130°SE
Pressure: 30.03"   Gusts: NA
Location:  20.9°S, 167.2°E
Report Text: NWWW 231230Z AUTO 13008KT 9999 NSC 21/18 Q1017
Loading
Personal Weather Stations






























Interactive Weather Map New forecast layout! Learn more

10-Day Weather Forecast

Advertisements
Track Severe Weather on mobile